createdAt,value
2023-05-22T00:01:04.858Z,9.27
2023-05-22T00:03:33.243Z,10.32
2023-05-22T00:06:02.681Z,9.57
2023-05-22T00:08:31.062Z,7.40
2023-05-22T00:10:59.222Z,10.82
2023-05-22T00:13:27.240Z,8.85
2023-05-22T00:15:55.315Z,11.40
2023-05-22T00:18:23.372Z,16.20
2023-05-22T00:20:51.868Z,10.38
2023-05-22T00:23:21.906Z,9.15
2023-05-22T00:25:50.760Z,10.38
2023-05-22T00:28:18.835Z,8.30
2023-05-22T00:30:47.099Z,9.48
2023-05-22T00:33:15.172Z,8.70
2023-05-22T00:35:43.230Z,9.85
2023-05-22T00:38:27.832Z,10.68
2023-05-22T00:40:57.369Z,11.10
2023-05-22T00:43:25.724Z,9.43
2023-05-22T00:45:54.121Z,9.40
2023-05-22T00:48:22.222Z,10.27
2023-05-22T00:50:51.203Z,9.48
2023-05-22T00:53:22.034Z,11.27
2023-05-22T00:55:50.494Z,8.75
2023-05-22T00:58:21.685Z,11.57
2023-05-22T01:00:49.979Z,12.18
2023-05-22T01:03:19.467Z,10.25
2023-05-22T01:05:47.667Z,9.85
2023-05-22T01:08:15.747Z,10.52
2023-05-22T01:10:43.809Z,12.02
2023-05-22T01:13:21.292Z,10.68
2023-05-22T01:15:58.215Z,11.05
2023-05-22T01:18:32.969Z,11.40
2023-05-22T01:21:10.258Z,11.10
2023-05-22T01:24:16.148Z,10.63
2023-05-22T01:27:08.967Z,12.80
2023-05-22T01:29:47.344Z,11.45
2023-05-22T01:32:21.381Z,11.30
2023-05-22T01:34:55.272Z,13.13
2023-05-22T01:37:24.304Z,12.45
2023-05-22T01:39:54.447Z,9.85
2023-05-22T01:42:23.025Z,10.15
2023-05-22T01:44:51.174Z,10.85
2023-05-22T01:47:20.908Z,10.98
2023-05-22T01:49:49.139Z,12.32
2023-05-22T01:52:23.801Z,12.25
2023-05-22T01:54:58.311Z,12.00
2023-05-22T01:57:31.889Z,11.43
2023-05-22T02:00:07.323Z,12.20
2023-05-22T02:02:49.539Z,11.23
2023-05-22T02:05:21.864Z,11.70
2023-05-22T02:07:51.190Z,11.93
2023-05-22T02:10:21.117Z,12.98
2023-05-22T02:12:49.873Z,11.77
2023-05-22T02:15:18.152Z,17.33
2023-05-22T02:17:53.321Z,16.80
2023-05-22T02:20:21.736Z,13.50
2023-05-22T02:22:49.876Z,12.18
2023-05-22T02:25:18.067Z,13.95
2023-05-22T02:27:49.511Z,15.07
2023-05-22T02:30:17.797Z,12.50
2023-05-22T02:32:51.663Z,15.45
2023-05-22T02:35:19.989Z,13.07
2023-05-22T02:37:47.994Z,18.58
2023-05-22T02:40:16.116Z,16.50
2023-05-22T02:42:44.142Z,15.98
2023-05-22T02:45:14.187Z,13.02
2023-05-22T02:47:43.637Z,11.82
2023-05-22T02:50:14.735Z,15.25
2023-05-22T02:52:45.281Z,18.15
2023-05-22T02:55:13.355Z,11.52
2023-05-22T02:57:41.499Z,13.32
2023-05-22T03:00:11.710Z,18.30
2023-05-22T03:02:39.965Z,14.13
2023-05-22T03:05:08.633Z,12.88
2023-05-22T03:07:38.064Z,15.05
2023-05-22T03:10:07.344Z,13.52
2023-05-22T03:12:35.555Z,18.00
2023-05-22T03:15:03.617Z,15.10
2023-05-22T03:17:34.975Z,15.90
2023-05-22T03:20:03.825Z,13.77
2023-05-22T03:22:31.957Z,15.02
2023-05-22T03:25:01.634Z,13.18
2023-05-22T03:27:30.004Z,18.60
2023-05-22T03:29:58.188Z,16.88
2023-05-22T03:32:26.427Z,17.83
2023-05-22T03:34:55.168Z,12.90
2023-05-22T03:37:23.383Z,12.88
2023-05-22T03:39:51.434Z,12.52
2023-05-22T03:42:28.179Z,13.55
2023-05-22T03:44:57.470Z,12.43
2023-05-22T03:47:26.955Z,19.58
2023-05-22T03:49:54.975Z,15.48
2023-05-22T03:52:23.942Z,23.13
2023-05-22T03:54:53.497Z,17.05
2023-05-22T03:57:21.708Z,17.05
2023-05-22T03:59:51.348Z,14.13
2023-05-22T04:02:19.454Z,14.50
2023-05-22T04:04:47.519Z,15.18
2023-05-22T04:07:18.306Z,14.38
2023-05-22T04:09:46.481Z,16.80
2023-05-22T04:12:14.564Z,14.82
2023-05-22T04:14:43.932Z,14.50
2023-05-22T04:17:13.293Z,14.77
2023-05-22T04:19:41.422Z,15.52
2023-05-22T04:22:09.454Z,16.42
2023-05-22T04:24:39.714Z,14.93
2023-05-22T04:27:07.896Z,16.00
2023-05-22T04:29:36.386Z,16.83
2023-05-22T04:32:06.223Z,14.77
2023-05-22T04:34:37.760Z,15.55
2023-05-22T04:37:06.240Z,16.33
2023-05-22T04:39:34.363Z,14.40
2023-05-22T04:42:05.808Z,16.88
2023-05-22T04:44:34.597Z,15.15
2023-05-22T04:47:03.964Z,13.38
2023-05-22T04:49:33.710Z,18.05
2023-05-22T04:52:04.763Z,18.98
2023-05-22T04:54:32.890Z,16.08
2023-05-22T04:57:00.969Z,16.35
2023-05-22T04:59:29.089Z,17.02
2023-05-22T05:01:57.306Z,16.95
2023-05-22T05:04:26.071Z,15.10
2023-05-22T05:06:55.089Z,18.13
2023-05-22T05:09:24.844Z,18.58
2023-05-22T05:11:53.752Z,18.55
2023-05-22T05:14:21.830Z,19.95
2023-05-22T05:16:51.678Z,18.98
2023-05-22T05:19:21.483Z,19.42
2023-05-22T05:21:49.755Z,18.25
2023-05-22T05:24:18.429Z,16.25
2023-05-22T05:26:48.459Z,19.65
2023-05-22T05:29:18.606Z,18.15
2023-05-22T05:34:40.533Z,18.98
2023-05-22T05:37:21.174Z,16.92
2023-05-22T05:39:49.976Z,21.15
2023-05-22T05:42:19.568Z,20.73
2023-05-22T05:44:49.265Z,25.58
2023-05-22T05:47:18.257Z,22.25
2023-05-22T05:49:46.586Z,21.02
2023-05-22T05:52:16.490Z,25.92
2023-05-22T05:54:47.469Z,21.33
2023-05-22T05:57:19.489Z,26.73
2023-05-22T05:59:47.696Z,26.60
2023-05-22T06:02:34.382Z,23.23
2023-05-22T06:05:05.053Z,19.90
2023-05-22T06:07:38.044Z,19.33
2023-05-22T06:10:08.343Z,20.35
2023-05-22T06:12:47.294Z,19.90
2023-05-22T06:15:16.436Z,21.30
2023-05-22T06:17:44.484Z,17.20
2023-05-22T06:20:14.241Z,19.10
2023-05-22T06:22:43.247Z,19.35
2023-05-22T06:25:11.510Z,15.10
2023-05-22T06:27:39.555Z,20.23
2023-05-22T06:30:10.386Z,21.60
2023-05-22T06:32:40.738Z,19.70
2023-05-22T06:35:10.753Z,16.27
2023-05-22T06:37:42.206Z,20.90
2023-05-22T06:40:11.674Z,18.08
2023-05-22T06:42:50.213Z,20.40
2023-05-22T06:45:34.476Z,20.38
2023-05-22T06:48:20.866Z,19.52
2023-05-22T06:51:00.429Z,19.08
2023-05-22T06:53:28.530Z,17.33
2023-05-22T06:55:57.072Z,19.10
2023-05-22T06:58:38.661Z,19.85
2023-05-22T07:01:08.972Z,18.98
2023-05-22T07:03:42.497Z,19.60
2023-05-22T07:06:39.155Z,19.42
2023-05-22T07:09:08.397Z,20.33
2023-05-22T07:11:36.613Z,20.08
2023-05-22T07:14:05.005Z,19.23
2023-05-22T07:16:34.408Z,18.73
2023-05-22T07:19:03.455Z,17.35
2023-05-22T07:21:31.989Z,22.70
2023-05-22T07:24:00.226Z,21.30
2023-05-22T07:26:29.893Z,20.67
2023-05-22T07:29:05.833Z,20.20
2023-05-22T07:31:35.479Z,19.88
2023-05-22T07:34:03.718Z,23.52
2023-05-22T07:36:31.912Z,21.08
2023-05-22T07:38:59.969Z,25.98
2023-05-22T07:41:28.353Z,19.00
2023-05-22T07:43:56.710Z,24.00
2023-05-22T07:46:29.469Z,21.08
2023-05-22T07:49:10.901Z,22.92
2023-05-22T07:51:41.981Z,27.90
2023-05-22T07:54:11.012Z,27.27
2023-05-22T07:56:42.473Z,25.50
2023-05-22T07:59:12.127Z,26.42
2023-05-22T08:01:41.767Z,26.55
2023-05-22T08:04:11.424Z,21.30
2023-05-22T08:06:39.990Z,28.92
2023-05-22T08:09:08.106Z,25.45
2023-05-22T08:11:39.051Z,33.17
2023-05-22T08:14:07.920Z,30.10
2023-05-22T08:16:36.044Z,35.28
2023-05-22T08:19:04.836Z,29.02
2023-05-22T08:21:34.611Z,31.95
2023-05-22T08:24:03.049Z,34.65
2023-05-22T08:26:33.193Z,42.72
2023-05-22T08:29:01.690Z,39.35
2023-05-22T08:31:30.080Z,45.17
2023-05-22T08:34:02.145Z,50.25
2023-05-22T08:36:33.829Z,53.75
2023-05-22T08:39:03.667Z,48.30
2023-05-22T08:41:31.746Z,57.05
2023-05-22T08:43:59.877Z,56.33
2023-05-22T08:46:29.201Z,58.35
2023-05-22T08:48:58.821Z,64.35
2023-05-22T08:51:31.328Z,63.10
2023-05-22T08:54:00.510Z,57.63
2023-05-22T08:56:32.169Z,63.05
2023-05-22T08:59:02.093Z,65.00
2023-05-22T09:01:30.461Z,79.35
2023-05-22T09:04:01.782Z,83.13
2023-05-22T09:06:30.258Z,76.82
2023-05-22T09:08:58.704Z,83.78
2023-05-22T09:11:27.147Z,81.13
2023-05-22T09:14:07.995Z,77.47
2023-05-22T09:16:46.106Z,67.78
2023-05-22T09:19:14.809Z,83.18
2023-05-22T09:21:44.458Z,92.10
2023-05-22T09:24:13.160Z,86.40
2023-05-22T09:26:41.453Z,89.45
2023-05-22T09:29:11.112Z,90.70
2023-05-22T09:31:43.806Z,89.15
2023-05-22T09:34:14.259Z,89.75
2023-05-22T09:36:42.703Z,95.70
2023-05-22T09:39:10.946Z,98.82
2023-05-22T09:41:40.882Z,83.45
2023-05-22T09:44:15.456Z,87.13
2023-05-22T09:46:45.346Z,89.63
2023-05-22T09:49:16.384Z,96.63
2023-05-22T09:51:48.589Z,86.70
2023-05-22T09:54:18.035Z,99.18
2023-05-22T09:56:50.157Z,107.53
2023-05-22T09:59:23.503Z,105.85
2023-05-22T10:01:52.032Z,84.55
2023-05-22T10:04:22.828Z,87.57
2023-05-22T10:06:53.870Z,86.93
2023-05-22T10:09:24.818Z,84.13
2023-05-22T10:11:57.562Z,83.07
2023-05-22T10:14:29.024Z,83.95
2023-05-22T10:17:02.067Z,88.63
2023-05-22T10:19:32.909Z,82.32
2023-05-22T10:22:02.426Z,69.43
2023-05-22T10:24:30.884Z,63.35
2023-05-22T10:27:00.241Z,58.17
2023-05-22T10:29:39.261Z,62.20
2023-05-22T10:32:15.910Z,59.80
2023-05-22T10:37:48.219Z,57.38
2023-05-22T10:40:22.647Z,55.83
2023-05-22T10:42:50.881Z,57.45
2023-05-22T10:45:20.433Z,53.10
2023-05-22T10:47:48.564Z,49.03
2023-05-22T10:50:19.098Z,51.50
2023-05-22T10:52:48.551Z,49.40
2023-05-22T10:55:16.625Z,41.38
2023-05-22T10:57:44.717Z,44.58
2023-05-22T11:00:16.204Z,42.35
2023-05-22T11:02:49.902Z,41.63
2023-05-22T11:05:36.400Z,41.15
2023-05-22T11:08:11.472Z,37.97
2023-05-22T11:10:56.021Z,41.33
2023-05-22T11:13:29.021Z,44.38
2023-05-22T11:15:57.840Z,40.85
2023-05-22T11:18:30.009Z,40.20
2023-05-22T11:21:00.287Z,41.03
2023-05-22T11:23:28.489Z,39.58
2023-05-22T11:25:56.582Z,44.58
2023-05-22T11:28:25.513Z,45.65
2023-05-22T11:30:54.913Z,51.60
2023-05-22T11:33:24.530Z,52.38
2023-05-22T11:35:54.949Z,47.08
2023-05-22T11:38:23.226Z,47.53
2023-05-22T11:40:53.175Z,50.65
2023-05-22T11:43:31.443Z,48.63
2023-05-22T11:46:02.686Z,46.95
2023-05-22T11:48:30.821Z,44.80
2023-05-22T11:51:00.581Z,49.38
2023-05-22T11:53:28.669Z,48.22
2023-05-22T11:55:56.669Z,46.63
2023-05-22T11:58:28.725Z,41.53
2023-05-22T12:01:00.410Z,46.13
2023-05-22T12:03:28.530Z,42.95
2023-05-22T12:05:57.420Z,42.97
2023-05-22T12:08:27.400Z,47.97
2023-05-22T12:10:55.813Z,45.28
2023-05-22T12:13:27.928Z,44.65
2023-05-22T12:16:00.198Z,45.05
2023-05-22T12:18:28.470Z,45.33
2023-05-22T12:20:56.997Z,39.15
2023-05-22T12:23:27.531Z,40.50
2023-05-22T12:26:03.468Z,43.90
2023-05-22T12:28:33.552Z,44.80
2023-05-22T12:31:01.722Z,40.88
2023-05-22T12:33:30.331Z,43.60
2023-05-22T12:35:59.347Z,46.33
2023-05-22T12:38:30.769Z,39.40
2023-05-22T12:41:00.183Z,40.40
2023-05-22T12:43:28.153Z,41.67
2023-05-22T12:45:56.182Z,36.90
2023-05-22T12:48:24.248Z,39.00
2023-05-22T12:50:52.337Z,34.33
2023-05-22T12:53:20.752Z,43.58
2023-05-22T12:55:50.179Z,41.42
2023-05-22T12:58:18.244Z,37.03
2023-05-22T13:00:46.308Z,41.75
2023-05-22T13:03:14.457Z,43.08
2023-05-22T13:05:42.826Z,39.08
2023-05-22T13:08:11.112Z,39.20
2023-05-22T13:10:39.138Z,44.20
2023-05-22T13:13:08.673Z,49.15
2023-05-22T13:15:36.650Z,35.95
2023-05-22T13:18:04.840Z,44.40
2023-05-22T13:20:32.980Z,48.30
2023-05-22T13:23:01.062Z,44.30
2023-05-22T13:25:29.297Z,35.38
2023-05-22T13:27:57.345Z,43.55
2023-05-22T13:30:27.052Z,46.15
2023-05-22T13:32:55.466Z,45.55
2023-05-22T13:35:23.646Z,52.50
2023-05-22T13:37:51.770Z,40.90
2023-05-22T13:40:20.173Z,51.70
2023-05-22T13:42:48.236Z,46.22
2023-05-22T13:45:16.290Z,47.05
2023-05-22T13:47:46.132Z,45.90
2023-05-22T13:50:14.299Z,42.50
2023-05-22T13:52:42.325Z,49.83
2023-05-22T13:55:10.899Z,36.97
2023-05-22T13:57:40.440Z,51.33
2023-05-22T14:00:10.049Z,50.53
2023-05-22T14:02:38.520Z,45.38
2023-05-22T14:05:09.334Z,46.95
2023-05-22T14:07:37.500Z,39.25
2023-05-22T14:10:06.732Z,47.78
2023-05-22T14:12:34.980Z,41.95
2023-05-22T14:15:03.161Z,46.72
2023-05-22T14:17:31.263Z,50.15
2023-05-22T14:19:59.838Z,47.78
2023-05-22T14:22:29.202Z,42.15
2023-05-22T14:24:57.320Z,45.20
2023-05-22T14:27:25.373Z,48.35
2023-05-22T14:29:53.453Z,42.42
2023-05-22T14:32:21.561Z,39.83
2023-05-22T14:34:49.571Z,40.88
2023-05-22T14:37:18.948Z,37.38
2023-05-22T14:39:48.554Z,37.88
2023-05-22T14:42:16.681Z,39.40
2023-05-22T14:44:44.817Z,30.92
2023-05-22T14:47:13.194Z,32.00
2023-05-22T14:49:41.273Z,30.70
2023-05-22T14:52:09.386Z,24.27
2023-05-22T14:54:37.403Z,32.50
2023-05-22T14:57:07.218Z,36.00
2023-05-22T14:59:35.267Z,34.83
2023-05-22T15:02:03.444Z,30.98
2023-05-22T15:04:31.753Z,33.70
2023-05-22T15:06:59.797Z,26.02
2023-05-22T15:09:27.850Z,33.80
2023-05-22T15:11:55.935Z,35.00
2023-05-22T15:14:25.477Z,33.03
2023-05-22T15:16:53.901Z,31.90
2023-05-22T15:19:22.132Z,28.50
2023-05-22T15:21:50.610Z,33.55
2023-05-22T15:24:18.709Z,33.70
2023-05-22T15:26:46.925Z,33.50
2023-05-22T15:29:14.968Z,41.88
2023-05-22T15:31:44.637Z,33.42
2023-05-22T15:34:12.708Z,30.00
2023-05-22T15:36:41.087Z,35.20
2023-05-22T15:39:09.198Z,39.95
2023-05-22T15:41:37.607Z,36.40
2023-05-22T15:44:05.868Z,44.95
2023-05-22T15:46:33.967Z,42.13
2023-05-22T15:49:03.377Z,38.78
2023-05-22T15:51:32.670Z,46.15
2023-05-22T15:54:00.737Z,45.90
2023-05-22T15:56:28.798Z,44.63
2023-05-22T15:58:56.815Z,42.83
2023-05-22T16:01:24.916Z,47.35
2023-05-22T16:03:53.019Z,51.20
2023-05-22T16:06:23.316Z,49.33
2023-05-22T16:08:51.371Z,48.70
2023-05-22T16:11:19.529Z,48.42
2023-05-22T16:13:47.826Z,53.17
2023-05-22T16:16:17.388Z,55.08
2023-05-22T16:18:45.472Z,57.25
2023-05-22T16:21:13.484Z,67.45
2023-05-22T16:23:42.900Z,65.35
2023-05-22T16:26:10.945Z,67.00
2023-05-22T16:28:39.054Z,76.15
2023-05-22T16:31:07.248Z,76.93
2023-05-22T16:33:37.522Z,62.30
2023-05-22T16:36:06.246Z,71.13
2023-05-22T16:38:34.367Z,68.45
2023-05-22T16:41:03.853Z,68.32
2023-05-22T16:43:31.960Z,62.28
2023-05-22T16:46:00.204Z,69.63
2023-05-22T16:48:28.423Z,67.70
2023-05-22T16:50:56.593Z,66.75
2023-05-22T16:53:24.729Z,61.22
2023-05-22T16:55:52.966Z,63.47
2023-05-22T16:58:22.386Z,53.08
2023-05-22T17:00:50.608Z,57.55
2023-05-22T17:03:18.783Z,59.67
2023-05-22T17:05:47.611Z,49.08
2023-05-22T17:08:15.810Z,39.85
2023-05-22T17:10:43.989Z,53.78
2023-05-22T17:13:19.554Z,50.83
2023-05-22T17:15:49.530Z,44.42
2023-05-22T17:18:20.923Z,44.72
2023-05-22T17:20:49.537Z,47.35
2023-05-22T17:23:18.386Z,40.50
2023-05-22T17:25:46.976Z,49.50
2023-05-22T17:28:15.636Z,44.38
2023-05-22T17:30:45.224Z,34.42
2023-05-22T17:33:14.957Z,26.88
2023-05-22T17:35:43.125Z,23.90
2023-05-22T17:38:11.229Z,26.05
2023-05-22T17:40:45.702Z,21.17
2023-05-22T17:43:14.994Z,20.00
2023-05-22T17:45:44.484Z,20.00
2023-05-22T17:48:15.842Z,19.05
2023-05-22T17:50:43.980Z,16.02
2023-05-22T17:53:13.467Z,16.92
2023-05-22T17:55:41.561Z,13.38
2023-05-22T17:58:09.781Z,12.48
2023-05-22T18:00:37.927Z,10.18
2023-05-22T18:03:07.658Z,11.70
2023-05-22T18:05:37.374Z,12.68
2023-05-22T18:08:05.952Z,10.23
2023-05-22T18:10:33.997Z,10.70
2023-05-22T18:13:02.212Z,10.88
2023-05-22T18:15:30.517Z,9.82
2023-05-22T18:17:58.620Z,10.23
2023-05-22T18:20:26.710Z,9.77
2023-05-22T18:22:56.164Z,9.05
2023-05-22T18:25:24.332Z,8.73
2023-05-22T18:27:52.529Z,8.95
2023-05-22T18:30:20.584Z,9.00
2023-05-22T18:32:48.761Z,10.60
2023-05-22T18:35:16.880Z,11.85
2023-05-22T18:37:45.071Z,10.82
2023-05-22T18:40:15.323Z,10.63
2023-05-22T18:42:43.956Z,14.23
2023-05-22T18:45:12.447Z,13.90
2023-05-22T18:47:40.584Z,13.23
2023-05-22T18:50:09.404Z,11.60
2023-05-22T18:52:40.049Z,15.75
2023-05-22T18:55:08.748Z,15.07
2023-05-22T18:57:38.131Z,13.13
2023-05-22T19:00:08.101Z,13.30
2023-05-22T19:02:36.399Z,15.43
2023-05-22T19:05:05.130Z,14.05
2023-05-22T19:07:33.274Z,11.52
2023-05-22T19:10:01.437Z,12.93
2023-05-22T19:12:31.678Z,15.63
2023-05-22T19:15:01.207Z,12.68
2023-05-22T19:17:29.366Z,16.08
2023-05-22T19:19:57.414Z,12.05
2023-05-22T19:22:25.600Z,12.80
2023-05-22T19:24:53.547Z,15.70
2023-05-22T19:27:21.675Z,13.52
2023-05-22T19:29:49.912Z,15.18
2023-05-22T19:32:19.253Z,21.40
2023-05-22T19:34:47.603Z,14.25
2023-05-22T19:37:15.731Z,15.90
2023-05-22T19:39:43.834Z,16.02
2023-05-22T19:42:12.270Z,14.88
2023-05-22T19:44:40.355Z,14.68
2023-05-22T19:47:08.845Z,12.90
2023-05-22T19:49:38.312Z,15.82
2023-05-22T19:52:07.280Z,24.77
2023-05-22T19:54:35.627Z,15.07
2023-05-22T19:57:04.034Z,15.30
2023-05-22T19:59:33.225Z,12.93
2023-05-22T20:02:02.308Z,15.07
2023-05-22T20:04:31.533Z,12.27
2023-05-22T20:07:02.357Z,15.25
2023-05-22T20:09:30.532Z,11.55
2023-05-22T20:11:58.722Z,11.60
2023-05-22T20:14:26.854Z,17.08
2023-05-22T20:16:55.287Z,12.80
2023-05-22T20:19:25.506Z,16.85
2023-05-22T20:21:53.688Z,14.52
2023-05-22T20:24:25.113Z,9.07
2023-05-22T20:26:53.841Z,10.77
2023-05-22T20:29:21.856Z,13.40
2023-05-22T20:31:51.165Z,14.25
2023-05-22T20:34:20.558Z,9.18
2023-05-22T20:36:48.615Z,10.68
2023-05-22T20:39:18.089Z,10.25
2023-05-22T20:41:49.648Z,8.77
2023-05-22T20:44:19.172Z,9.52
2023-05-22T20:46:47.215Z,9.80
2023-05-22T20:49:16.130Z,10.32
2023-05-22T20:51:44.433Z,12.43
2023-05-22T20:54:12.467Z,9.45
2023-05-22T20:56:40.624Z,10.32
2023-05-22T20:59:10.123Z,10.85
2023-05-22T21:01:38.368Z,9.88
2023-05-22T21:04:06.532Z,10.57
2023-05-22T21:06:34.738Z,11.30
2023-05-22T21:09:02.889Z,11.57
2023-05-22T21:11:30.929Z,9.43
2023-05-22T21:13:58.962Z,8.48
2023-05-22T21:16:28.422Z,11.20
2023-05-22T21:18:56.571Z,10.10
2023-05-22T21:21:24.656Z,10.88
2023-05-22T21:23:52.921Z,10.85
2023-05-22T21:26:22.350Z,9.23
2023-05-22T21:28:50.694Z,12.27
2023-05-22T21:31:18.941Z,10.90
2023-05-22T21:33:48.373Z,11.23
2023-05-22T21:36:16.694Z,10.23
2023-05-22T21:38:44.863Z,9.13
2023-05-22T21:41:13.033Z,10.48
2023-05-22T21:43:41.177Z,9.50
2023-05-22T21:46:09.353Z,8.00
2023-05-22T21:48:37.450Z,8.20
2023-05-22T21:51:07.225Z,8.63
2023-05-22T21:53:35.240Z,8.98
2023-05-22T21:56:03.266Z,7.57
2023-05-22T21:58:31.356Z,8.55
2023-05-22T22:00:59.376Z,11.43
2023-05-22T22:03:27.511Z,8.20
2023-05-22T22:05:55.641Z,9.00
2023-05-22T22:08:27.106Z,8.35
2023-05-22T22:10:55.306Z,8.85
2023-05-22T22:13:23.434Z,10.98
2023-05-22T22:15:51.710Z,10.43
2023-05-22T22:18:19.786Z,10.25
2023-05-22T22:20:50.174Z,11.05
2023-05-22T22:23:18.374Z,8.70
2023-05-22T22:25:48.011Z,8.65
2023-05-22T22:28:16.051Z,8.10
2023-05-22T22:30:44.170Z,8.52
2023-05-22T22:33:12.848Z,12.27
2023-05-22T22:35:42.167Z,12.40
2023-05-22T22:38:10.555Z,10.55
2023-05-22T22:40:38.655Z,13.65
2023-05-22T22:43:08.155Z,11.38
2023-05-22T22:45:36.219Z,8.80
2023-05-22T22:48:05.751Z,7.75
2023-05-22T22:50:33.945Z,11.73
2023-05-22T22:53:01.956Z,9.30
2023-05-22T22:55:30.283Z,10.77
2023-05-22T22:57:59.469Z,12.07
2023-05-22T23:00:29.212Z,10.43
2023-05-22T23:02:57.396Z,11.98
2023-05-22T23:05:25.587Z,9.48
2023-05-22T23:07:53.678Z,9.02
2023-05-22T23:10:22.378Z,10.60
2023-05-22T23:12:50.350Z,9.27
2023-05-22T23:15:18.534Z,8.93
2023-05-22T23:17:50.160Z,10.98
2023-05-22T23:20:19.738Z,11.73
2023-05-22T23:22:47.762Z,11.00
2023-05-22T23:25:15.737Z,8.10
2023-05-22T23:27:43.984Z,8.90
2023-05-22T23:30:12.973Z,11.52
2023-05-22T23:32:41.038Z,13.25
2023-05-22T23:35:11.213Z,12.30
2023-05-22T23:37:39.227Z,10.05
2023-05-22T23:40:08.800Z,17.08
2023-05-22T23:42:37.448Z,12.30
2023-05-22T23:45:06.189Z,13.98
2023-05-22T23:47:34.229Z,19.33
2023-05-22T23:50:02.353Z,16.17
2023-05-22T23:52:32.103Z,16.50
2023-05-22T23:55:00.730Z,17.38
2023-05-22T23:57:28.939Z,17.38
2023-05-22T23:59:56.945Z,16.23
